createdAt,value
2018-04-13T00:02:13.305Z,10.50
2018-04-13T00:04:39.545Z,10.50
2018-04-13T00:07:05.751Z,10.50
2018-04-13T00:09:38.139Z,10.50
2018-04-13T00:12:10.265Z,10.50
2018-04-13T00:14:48.536Z,10.50
2018-04-13T00:17:27.234Z,10.50
2018-04-13T00:19:59.522Z,10.50
2018-04-13T00:22:31.774Z,10.40
2018-04-13T00:25:03.980Z,10.40
2018-04-13T00:27:36.166Z,10.40
2018-04-13T00:30:02.439Z,10.40
2018-04-13T00:32:28.655Z,10.40
2018-04-13T00:35:01.770Z,10.40
2018-04-13T00:37:34.995Z,10.40
2018-04-13T00:40:01.226Z,10.40
2018-04-13T00:42:33.434Z,10.40
2018-04-13T00:44:59.657Z,10.30
2018-04-13T00:47:32.103Z,10.30
2018-04-13T00:49:58.321Z,10.20
2018-04-13T00:52:24.545Z,10.20
2018-04-13T00:54:50.769Z,10.20
2018-04-13T00:57:16.977Z,10.20
2018-04-13T00:59:50.147Z,10.20
2018-04-13T01:02:22.584Z,10.20
2018-04-13T01:04:55.686Z,10.10
2018-04-13T01:07:28.623Z,10.10
2018-04-13T01:10:00.870Z,10.10
2018-04-13T01:12:33.168Z,10.10
2018-04-13T01:15:05.552Z,10.00
2018-04-13T01:17:32.030Z,9.90
2018-04-13T01:20:04.465Z,9.80
2018-04-13T01:22:31.420Z,9.80
2018-04-13T01:25:10.892Z,9.70
2018-04-13T01:27:43.232Z,9.70
2018-04-13T01:30:15.470Z,9.70
2018-04-13T01:32:47.760Z,9.80
2018-04-13T01:35:26.351Z,9.80
2018-04-13T01:37:59.428Z,9.80
2018-04-13T01:40:31.855Z,9.80
2018-04-13T01:43:10.320Z,9.80
2018-04-13T01:45:36.552Z,9.80
2018-04-13T01:48:08.839Z,9.70
2018-04-13T01:50:41.066Z,9.70
2018-04-13T01:53:20.390Z,9.70
2018-04-13T01:55:46.617Z,9.70
2018-04-13T01:58:25.096Z,9.70
2018-04-13T02:00:51.329Z,9.60
2018-04-13T02:03:24.285Z,9.50
2018-04-13T02:05:56.506Z,9.50
2018-04-13T02:08:42.242Z,9.50
2018-04-13T02:11:08.512Z,9.50
2018-04-13T02:13:40.784Z,9.40
2018-04-13T02:16:13.051Z,9.40
2018-04-13T02:18:39.418Z,9.40
2018-04-13T02:21:11.795Z,9.30
2018-04-13T02:23:44.071Z,9.20
2018-04-13T02:26:10.286Z,9.20
2018-04-13T02:28:42.623Z,9.20
2018-04-13T02:31:15.025Z,9.20
2018-04-13T02:33:48.189Z,9.10
2018-04-13T02:36:14.413Z,9.00
2018-04-13T02:38:40.627Z,9.00
2018-04-13T02:41:12.987Z,9.00
2018-04-13T02:43:45.983Z,9.00
2018-04-13T02:46:12.959Z,9.00
2018-04-13T02:48:39.939Z,9.00
2018-04-13T02:51:06.912Z,9.00
2018-04-13T02:53:45.284Z,9.00
2018-04-13T02:56:12.264Z,9.10
2018-04-13T02:58:44.405Z,9.00
2018-04-13T03:01:16.713Z,9.00
2018-04-13T03:03:49.656Z,9.00
2018-04-13T03:06:21.978Z,9.00
2018-04-13T03:08:48.185Z,9.00
2018-04-13T03:11:14.409Z,8.90
2018-04-13T03:13:40.643Z,8.90
2018-04-13T03:16:12.991Z,8.90
2018-04-13T03:18:40.092Z,9.00
2018-04-13T03:21:06.334Z,8.90
2018-04-13T03:23:32.504Z,9.00
2018-04-13T03:26:04.953Z,8.90
2018-04-13T03:28:37.255Z,8.90
2018-04-13T03:31:09.679Z,8.90
2018-04-13T03:33:41.866Z,9.00
2018-04-13T03:36:08.843Z,9.00
2018-04-13T03:38:35.048Z,9.00
2018-04-13T03:41:07.437Z,9.10
2018-04-13T03:43:39.698Z,9.10
2018-04-13T03:46:18.166Z,9.20
2018-04-13T03:48:45.107Z,9.20
2018-04-13T03:51:17.550Z,9.20
2018-04-13T03:53:43.761Z,9.30
2018-04-13T03:56:16.284Z,9.30
2018-04-13T03:58:48.688Z,9.30
2018-04-13T04:01:21.092Z,9.30
2018-04-13T04:03:53.309Z,9.30
2018-04-13T04:06:19.554Z,9.40
2018-04-13T04:08:57.791Z,9.90
2018-04-13T04:11:30.003Z,10.40
2018-04-13T04:13:56.217Z,10.80
2018-04-13T04:16:22.437Z,11.10
2018-04-13T04:18:54.903Z,11.40
2018-04-13T04:21:33.434Z,11.40
2018-04-13T04:24:18.033Z,11.10
2018-04-13T04:26:54.260Z,10.80
2018-04-13T04:29:27.394Z,10.40
2018-04-13T04:32:05.932Z,10.20
2018-04-13T04:34:44.266Z,10.00
2018-04-13T04:37:16.698Z,9.90
2018-04-13T04:39:42.914Z,9.80
2018-04-13T04:42:09.128Z,10.00
2018-04-13T04:44:41.367Z,10.40
2018-04-13T04:47:14.570Z,10.90
2018-04-13T04:49:41.539Z,11.10
2018-04-13T04:52:14.524Z,11.30
2018-04-13T04:54:52.963Z,11.30
2018-04-13T04:57:19.955Z,11.70
2018-04-13T04:59:46.182Z,11.60
2018-04-13T05:02:12.426Z,11.80
2018-04-13T05:04:44.650Z,12.00
2018-04-13T05:07:23.229Z,12.20
2018-04-13T05:09:49.455Z,12.30
2018-04-13T05:12:16.435Z,12.50
2018-04-13T05:14:48.669Z,12.40
2018-04-13T05:17:20.949Z,12.50
2018-04-13T05:19:59.806Z,12.60
2018-04-13T05:22:32.112Z,12.60
2018-04-13T05:25:10.640Z,12.40
2018-04-13T05:27:43.031Z,12.20
2018-04-13T05:30:09.266Z,12.00
2018-04-13T05:32:42.476Z,12.20
2018-04-13T05:35:14.850Z,12.20
2018-04-13T05:37:47.978Z,12.50
2018-04-13T05:40:26.452Z,12.50
2018-04-13T05:42:52.690Z,12.60
2018-04-13T05:45:25.041Z,12.90
2018-04-13T05:48:03.693Z,13.10
2018-04-13T05:50:29.912Z,13.40
2018-04-13T05:53:02.277Z,13.60
2018-04-13T05:55:28.535Z,13.60
2018-04-13T05:57:54.777Z,13.40
2018-04-13T06:00:21.007Z,13.30
2018-04-13T06:02:53.341Z,13.30
2018-04-13T06:05:19.549Z,13.30
2018-04-13T06:07:51.847Z,13.30
2018-04-13T06:10:18.084Z,13.30
2018-04-13T06:12:50.467Z,13.30
2018-04-13T06:15:16.695Z,13.30
2018-04-13T06:17:42.935Z,13.40
2018-04-13T06:20:09.433Z,13.40
2018-04-13T06:22:42.607Z,13.50
2018-04-13T06:25:08.825Z,13.50
2018-04-13T06:27:41.113Z,13.50
2018-04-13T06:30:07.372Z,13.50
2018-04-13T06:32:33.627Z,13.50
2018-04-13T06:35:00.713Z,13.50
2018-04-13T06:37:33.869Z,13.50
2018-04-13T06:40:00.123Z,13.50
2018-04-13T06:42:32.430Z,13.40
2018-04-13T06:44:59.416Z,13.30
2018-04-13T06:47:25.618Z,13.30
2018-04-13T06:49:51.855Z,13.30
2018-04-13T06:55:15.399Z,13.20
2018-04-13T06:57:41.608Z,13.30
2018-04-13T07:00:07.894Z,13.40
2018-04-13T07:02:34.181Z,13.40
2018-04-13T07:05:06.525Z,13.50
2018-04-13T07:07:38.679Z,13.60
2018-04-13T07:10:17.834Z,13.80
2018-04-13T07:12:50.310Z,13.80
2018-04-13T07:15:23.392Z,14.00
2018-04-13T07:17:50.362Z,14.00
2018-04-13T07:20:23.764Z,14.10
2018-04-13T07:22:50.720Z,14.20
2018-04-13T07:25:29.328Z,14.20
2018-04-13T07:28:07.530Z,14.30
2018-04-13T07:30:33.777Z,14.40
2018-04-13T07:33:00.728Z,14.60
2018-04-13T07:35:32.952Z,14.70
2018-04-13T07:38:05.128Z,14.70
2018-04-13T07:40:37.322Z,14.80
2018-04-13T07:43:10.412Z,15.00
2018-04-13T07:45:36.639Z,15.00
2018-04-13T07:48:08.801Z,15.10
2018-04-13T07:50:35.039Z,15.20
2018-04-13T07:53:01.268Z,15.30
2018-04-13T07:55:33.520Z,15.40
2018-04-13T07:57:59.768Z,15.50
2018-04-13T08:00:26.016Z,15.70
2018-04-13T08:02:58.519Z,15.80
2018-04-13T08:05:36.934Z,15.90
2018-04-13T08:08:03.156Z,16.10
2018-04-13T08:10:29.394Z,16.20
2018-04-13T08:12:55.625Z,16.30
2018-04-13T08:15:28.623Z,16.20
2018-04-13T08:18:01.667Z,16.10
2018-04-13T08:20:34.172Z,16.10
2018-04-13T08:23:12.690Z,16.00
2018-04-13T08:25:38.930Z,16.00
2018-04-13T08:28:05.142Z,15.90
2018-04-13T08:30:31.458Z,15.80
2018-04-13T08:32:57.674Z,15.70
2018-04-13T08:35:30.088Z,15.70
2018-04-13T08:38:02.493Z,15.70
2018-04-13T08:40:35.563Z,15.70
2018-04-13T08:43:07.935Z,15.70
2018-04-13T08:45:41.822Z,15.80
2018-04-13T08:48:14.018Z,15.80
2018-04-13T08:50:46.273Z,15.90
2018-04-13T08:53:18.486Z,16.10
2018-04-13T08:55:45.458Z,16.60
2018-04-13T08:58:17.734Z,16.60
2018-04-13T09:00:50.626Z,17.00
2018-04-13T09:03:23.018Z,16.90
2018-04-13T09:05:55.400Z,17.10
2018-04-13T09:08:21.632Z,17.10
2018-04-13T09:11:06.329Z,17.20
2018-04-13T09:13:38.735Z,17.30
2018-04-13T09:16:18.005Z,17.60
2018-04-13T09:18:50.230Z,17.60
2018-04-13T09:21:16.997Z,17.90
2018-04-13T09:23:49.297Z,18.10
2018-04-13T09:26:22.367Z,18.30
2018-04-13T09:28:48.595Z,18.20
2018-04-13T09:31:14.837Z,18.40
2018-04-13T09:33:47.287Z,18.50
2018-04-13T09:36:19.580Z,18.50
2018-04-13T09:38:45.796Z,18.70
2018-04-13T09:41:18.935Z,19.20
2018-04-13T09:43:51.255Z,19.20
2018-04-13T09:46:17.496Z,19.30
2018-04-13T09:48:44.470Z,19.30
2018-04-13T09:51:11.485Z,19.30
2018-04-13T09:53:43.892Z,19.20
2018-04-13T09:56:16.252Z,19.20
2018-04-13T09:58:49.258Z,19.30
2018-04-13T10:01:21.718Z,19.30
2018-04-13T10:03:54.013Z,19.30
2018-04-13T10:06:32.415Z,19.30
2018-04-13T10:08:58.636Z,19.20
2018-04-13T10:11:25.620Z,19.40
2018-04-13T10:13:51.848Z,19.40
2018-04-13T10:16:24.852Z,19.70
2018-04-13T10:18:51.103Z,19.70
2018-04-13T10:21:23.611Z,19.80
2018-04-13T10:23:49.841Z,19.80
2018-04-13T10:26:20.064Z,19.80
2018-04-13T10:28:58.577Z,19.70
2018-04-13T10:31:31.790Z,19.70
2018-04-13T10:34:04.097Z,19.60
2018-04-13T10:36:30.338Z,19.70
2018-04-13T10:39:02.796Z,19.60
2018-04-13T10:41:35.753Z,19.40
2018-04-13T10:44:01.972Z,19.40
2018-04-13T10:46:28.220Z,19.30
2018-04-13T10:49:00.623Z,19.30
2018-04-13T10:51:32.874Z,19.30
2018-04-13T10:53:59.089Z,19.30
2018-04-13T10:56:37.669Z,19.30
2018-04-13T10:59:16.237Z,19.40
2018-04-13T11:01:42.465Z,19.50
2018-04-13T11:04:09.415Z,20.00
2018-04-13T11:06:42.313Z,20.30
2018-04-13T11:09:09.255Z,20.70
2018-04-13T11:11:47.711Z,20.70
2018-04-13T11:14:26.809Z,21.50
2018-04-13T11:16:53.072Z,21.50
2018-04-13T11:19:19.287Z,22.00
2018-04-13T11:21:51.886Z,22.50
2018-04-13T11:24:18.126Z,23.10
2018-04-13T11:27:02.924Z,23.40
2018-04-13T11:29:35.110Z,23.50
2018-04-13T11:32:02.077Z,23.70
2018-04-13T11:34:29.059Z,23.90
2018-04-13T11:37:07.540Z,23.90
2018-04-13T11:39:39.724Z,23.80
2018-04-13T11:42:11.952Z,23.90
2018-04-13T11:44:44.403Z,23.30
2018-04-13T11:47:11.393Z,23.10
2018-04-13T11:49:43.737Z,23.10
2018-04-13T11:52:22.135Z,23.60
2018-04-13T11:54:54.325Z,23.70
2018-04-13T11:57:34.566Z,22.30
2018-04-13T12:00:06.887Z,22.20
2018-04-13T12:02:39.288Z,21.70
2018-04-13T12:05:06.265Z,20.30
2018-04-13T12:07:33.605Z,20.10
2018-04-13T12:09:59.845Z,20.00
2018-04-13T12:12:26.094Z,20.30
2018-04-13T12:14:53.055Z,20.90
2018-04-13T12:17:20.042Z,21.60
2018-04-13T12:19:46.258Z,21.60
2018-04-13T12:22:13.277Z,23.10
2018-04-13T12:24:39.488Z,23.00
2018-04-13T12:27:05.729Z,23.40
2018-04-13T12:29:31.956Z,23.30
2018-04-13T12:31:58.186Z,23.50
2018-04-13T12:34:25.207Z,23.00
2018-04-13T12:36:51.430Z,22.90
2018-04-13T12:39:17.649Z,22.50
2018-04-13T12:41:43.876Z,22.20
2018-04-13T12:44:10.123Z,21.70
2018-04-13T12:46:36.354Z,21.60
2018-04-13T12:49:02.620Z,22.00
2018-04-13T12:51:28.809Z,22.30
2018-04-13T12:53:55.069Z,22.20
2018-04-13T12:56:22.107Z,22.20
2018-04-13T12:58:48.280Z,22.20
2018-04-13T13:01:14.516Z,23.00
2018-04-13T13:03:40.750Z,23.80
2018-04-13T13:06:06.961Z,24.50
2018-04-13T13:08:33.200Z,24.90
2018-04-13T13:10:59.417Z,25.10
2018-04-13T13:13:25.662Z,24.90
2018-04-13T13:15:51.864Z,24.50
2018-04-13T13:18:18.137Z,24.50
2018-04-13T13:20:44.389Z,24.80
2018-04-13T13:23:10.643Z,25.20
2018-04-13T13:25:36.853Z,25.60
2018-04-13T13:28:03.139Z,26.00
2018-04-13T13:30:30.111Z,25.90
2018-04-13T13:32:56.339Z,25.80
2018-04-13T13:35:22.561Z,25.60
2018-04-13T13:37:48.819Z,25.60
2018-04-13T13:40:15.061Z,25.30
2018-04-13T13:42:41.278Z,24.70
2018-04-13T13:45:07.527Z,24.00
2018-04-13T13:47:33.775Z,23.30
2018-04-13T13:50:00.001Z,22.80
2018-04-13T13:52:26.221Z,22.30
2018-04-13T13:54:52.521Z,21.70
2018-04-13T13:57:18.745Z,21.00
2018-04-13T13:59:44.979Z,20.50
2018-04-13T14:02:11.213Z,19.90
2018-04-13T14:04:38.198Z,19.00
2018-04-13T14:07:04.439Z,19.00
2018-04-13T14:09:30.734Z,18.80
2018-04-13T14:11:57.659Z,18.30
2018-04-13T14:14:24.637Z,18.00
2018-04-13T14:16:50.856Z,18.00
2018-04-13T14:19:17.123Z,17.50
2018-04-13T14:21:43.350Z,16.80
2018-04-13T14:24:10.342Z,15.70
2018-04-13T14:26:36.565Z,15.60
2018-04-13T14:29:02.803Z,15.30
2018-04-13T14:31:29.027Z,15.00
2018-04-13T14:33:55.259Z,14.70
2018-04-13T14:36:21.515Z,14.30
2018-04-13T14:38:47.770Z,14.10
2018-04-13T14:41:13.989Z,13.90
2018-04-13T14:43:40.971Z,13.50
2018-04-13T14:46:07.230Z,13.40
2018-04-13T14:48:33.496Z,13.30
2018-04-13T14:50:59.761Z,13.20
2018-04-13T14:53:25.991Z,13.10
2018-04-13T14:55:52.213Z,13.10
2018-04-13T14:58:18.494Z,13.10
2018-04-13T15:00:44.758Z,13.10
2018-04-13T15:03:11.007Z,13.10
2018-04-13T15:05:37.273Z,13.10
2018-04-13T15:08:03.533Z,13.20
2018-04-13T15:10:30.512Z,13.20
2018-04-13T15:12:56.745Z,13.20
2018-04-13T15:15:23.734Z,13.30
2018-04-13T15:17:49.974Z,13.30
2018-04-13T15:20:16.225Z,13.40
2018-04-13T15:22:42.457Z,13.40
2018-04-13T15:25:09.825Z,13.60
2018-04-13T15:27:36.047Z,13.60
2018-04-13T15:30:02.314Z,13.60
2018-04-13T15:32:28.557Z,13.70
2018-04-13T15:34:54.803Z,13.70
2018-04-13T15:37:21.082Z,13.70
2018-04-13T15:39:47.334Z,13.60
2018-04-13T15:42:14.293Z,13.40
2018-04-13T15:44:41.286Z,13.30
2018-04-13T15:47:08.521Z,13.30
2018-04-13T15:49:35.517Z,13.30
2018-04-13T15:52:01.749Z,13.30
2018-04-13T15:54:28.005Z,13.30
2018-04-13T15:56:54.216Z,13.30
2018-04-13T15:59:20.479Z,13.20
2018-04-13T16:01:46.704Z,13.20
2018-04-13T16:04:12.930Z,13.10
2018-04-13T16:06:39.199Z,13.10
2018-04-13T16:09:05.480Z,13.10
2018-04-13T16:11:32.494Z,13.10
2018-04-13T16:13:58.754Z,13.10
2018-04-13T16:16:25.021Z,13.10
2018-04-13T16:18:51.993Z,13.00
2018-04-13T16:21:18.246Z,13.00
2018-04-13T16:23:44.478Z,13.00
2018-04-13T16:26:10.740Z,12.90
2018-04-13T16:28:36.968Z,12.90
2018-04-13T16:31:03.260Z,12.90
2018-04-13T16:33:29.480Z,12.70
2018-04-13T16:35:55.732Z,12.50
2018-04-13T16:38:22.024Z,12.40
2018-04-13T16:40:48.267Z,12.20
2018-04-13T16:43:14.558Z,12.10
2018-04-13T16:45:40.813Z,12.00
2018-04-13T16:48:08.186Z,11.90
2018-04-13T16:50:34.499Z,11.90
2018-04-13T16:53:00.738Z,11.80
2018-04-13T16:55:27.004Z,11.70
2018-04-13T16:57:53.246Z,11.60
2018-04-13T17:00:19.510Z,11.60
2018-04-13T17:02:46.505Z,11.50
2018-04-13T17:05:12.748Z,11.60
2018-04-13T17:07:38.990Z,11.60
2018-04-13T17:10:05.264Z,11.60
2018-04-13T17:12:31.569Z,11.60
2018-04-13T17:14:57.816Z,11.70
2018-04-13T17:17:24.073Z,11.80
2018-04-13T17:19:50.336Z,11.90
2018-04-13T17:22:17.354Z,12.00
2018-04-13T17:24:43.934Z,12.00
2018-04-13T17:27:10.183Z,12.10
2018-04-13T17:29:37.170Z,12.10
2018-04-13T17:32:03.477Z,12.10
2018-04-13T17:34:29.736Z,12.20
2018-04-13T17:36:56.723Z,12.30
2018-04-13T17:39:22.963Z,12.30
2018-04-13T17:41:49.218Z,12.30
2018-04-13T17:44:15.484Z,12.40
2018-04-13T17:46:41.728Z,12.40
2018-04-13T17:49:07.962Z,12.50
2018-04-13T17:51:34.227Z,12.50
2018-04-13T17:54:01.194Z,12.40
2018-04-13T17:56:28.191Z,12.40
2018-04-13T17:58:54.426Z,12.30
2018-04-13T18:01:20.759Z,12.30
2018-04-13T18:03:47.011Z,12.30
2018-04-13T18:06:13.263Z,12.20
2018-04-13T18:08:40.269Z,12.10
2018-04-13T18:11:06.518Z,12.10
2018-04-13T18:13:33.497Z,12.40
2018-04-13T18:15:59.772Z,12.40
2018-04-13T18:18:26.011Z,12.60
2018-04-13T18:20:52.295Z,12.80
2018-04-13T18:23:18.555Z,13.00
2018-04-13T18:25:45.109Z,12.90
2018-04-13T18:28:11.359Z,12.60
2018-04-13T18:30:37.607Z,12.40
2018-04-13T18:33:03.941Z,12.20
2018-04-13T18:35:30.195Z,12.00
2018-04-13T18:37:56.467Z,11.80
2018-04-13T18:40:22.785Z,11.60
2018-04-13T18:42:49.090Z,11.50
2018-04-13T18:45:15.339Z,11.40
2018-04-13T18:47:41.670Z,11.20
2018-04-13T18:50:07.958Z,11.10
2018-04-13T18:52:34.247Z,11.00
2018-04-13T18:55:01.299Z,10.80
2018-04-13T18:57:28.407Z,10.80
2018-04-13T18:59:54.793Z,10.80
2018-04-13T19:02:21.051Z,10.70
2018-04-13T19:04:48.080Z,10.60
2018-04-13T19:07:14.389Z,10.60
2018-04-13T19:09:40.679Z,10.60
2018-04-13T19:12:07.006Z,10.50
2018-04-13T19:14:33.277Z,10.50
2018-04-13T19:17:00.318Z,10.30
2018-04-13T19:19:26.602Z,10.30
2018-04-13T19:21:52.870Z,10.20
2018-04-13T19:24:19.130Z,10.10
2018-04-13T19:26:45.459Z,10.10
2018-04-13T19:29:11.708Z,10.10
2018-04-13T19:31:38.032Z,10.10
2018-04-13T19:34:04.351Z,10.00
2018-04-13T19:36:31.482Z,10.00
2018-04-13T19:38:58.099Z,10.00
2018-04-13T19:41:24.367Z,10.00
2018-04-13T19:43:50.694Z,10.00
2018-04-13T19:46:16.978Z,10.00
2018-04-13T19:48:44.005Z,9.90
2018-04-13T19:51:10.305Z,9.90
2018-04-13T19:53:36.625Z,9.90
2018-04-13T19:56:02.907Z,9.80
2018-04-13T19:58:29.186Z,9.80
2018-04-13T20:00:56.250Z,9.80
2018-04-13T20:03:23.314Z,9.80
2018-04-13T20:05:50.350Z,9.80
2018-04-13T20:08:16.689Z,9.80
2018-04-13T20:10:42.947Z,9.70
2018-04-13T20:13:09.220Z,9.70
2018-04-13T20:15:35.509Z,9.70
2018-04-13T20:18:01.819Z,9.70
2018-04-13T20:20:28.122Z,9.70
2018-04-13T20:22:55.139Z,9.70
2018-04-13T20:25:21.403Z,9.70
2018-04-13T20:27:47.716Z,9.70
2018-04-13T20:30:14.003Z,9.60
2018-04-13T20:32:40.981Z,9.50
2018-04-13T20:35:07.241Z,9.50
2018-04-13T20:37:34.240Z,9.50
2018-04-13T20:40:01.258Z,9.50
2018-04-13T20:42:27.523Z,9.50
2018-04-13T20:44:53.765Z,9.50
2018-04-13T20:47:20.040Z,9.40
2018-04-13T20:49:47.064Z,9.40
2018-04-13T20:52:14.042Z,9.40
2018-04-13T20:54:40.347Z,9.30
2018-04-13T20:57:06.602Z,9.30
2018-04-13T20:59:32.896Z,9.30
2018-04-13T21:01:59.868Z,9.20
2018-04-13T21:04:26.865Z,9.20
2018-04-13T21:06:53.095Z,9.10
2018-04-13T21:09:19.337Z,9.20
2018-04-13T21:11:45.557Z,9.20
2018-04-13T21:14:11.795Z,9.10
2018-04-13T21:16:38.008Z,9.10
2018-04-13T21:19:05.013Z,9.00
2018-04-13T21:21:31.258Z,9.00
2018-04-13T21:23:58.257Z,8.90
2018-04-13T21:26:25.238Z,8.90
2018-04-13T21:28:52.252Z,8.80
2018-04-13T21:31:18.474Z,8.80
2018-04-13T21:33:44.734Z,8.80
2018-04-13T21:36:11.003Z,8.80
2018-04-13T21:38:37.972Z,8.70
2018-04-13T21:41:04.932Z,8.70
2018-04-13T21:43:31.182Z,8.70
2018-04-13T21:45:57.402Z,8.60
2018-04-13T21:48:24.362Z,8.50
2018-04-13T21:50:51.341Z,8.40
2018-04-13T21:53:17.580Z,8.40
2018-04-13T21:55:43.803Z,8.30
2018-04-13T21:58:10.755Z,8.30
2018-04-13T22:00:37.749Z,8.30
2018-04-13T22:03:03.965Z,8.30
2018-04-13T22:05:30.188Z,8.30
2018-04-13T22:07:56.395Z,8.30
2018-04-13T22:10:22.644Z,8.20
2018-04-13T22:13:01.103Z,8.20
2018-04-13T22:15:28.074Z,8.00
2018-04-13T22:17:54.322Z,8.00
2018-04-13T22:20:20.554Z,8.00
2018-04-13T22:22:46.769Z,7.90
2018-04-13T22:25:13.751Z,7.80
2018-04-13T22:27:39.989Z,7.80
2018-04-13T22:30:07.978Z,7.80
2018-04-13T22:32:34.181Z,7.80
2018-04-13T22:35:00.402Z,7.80
2018-04-13T22:37:26.631Z,7.80
2018-04-13T22:39:52.882Z,7.80
2018-04-13T22:42:19.103Z,7.70
2018-04-13T22:44:45.334Z,7.70
2018-04-13T22:47:11.557Z,7.60
2018-04-13T22:49:37.780Z,7.50
2018-04-13T22:52:04.765Z,7.50
2018-04-13T22:54:30.991Z,7.50
2018-04-13T22:56:57.951Z,7.40
2018-04-13T22:59:24.169Z,7.40
2018-04-13T23:01:51.145Z,7.40
2018-04-13T23:04:17.381Z,7.40
2018-04-13T23:06:44.349Z,7.40
2018-04-13T23:09:10.578Z,7.50
2018-04-13T23:11:37.534Z,7.40
2018-04-13T23:14:04.514Z,7.40
2018-04-13T23:16:30.741Z,7.30
2018-04-13T23:18:56.952Z,7.30
2018-04-13T23:21:23.185Z,7.30
2018-04-13T23:23:49.411Z,7.30
2018-04-13T23:26:15.659Z,7.30
2018-04-13T23:28:42.651Z,7.20
2018-04-13T23:31:09.649Z,7.20
2018-04-13T23:33:35.854Z,7.20
2018-04-13T23:36:02.837Z,7.20
2018-04-13T23:38:29.051Z,7.20
2018-04-13T23:40:56.058Z,7.10
2018-04-13T23:43:23.031Z,7.10
2018-04-13T23:45:49.248Z,7.10
2018-04-13T23:48:15.483Z,7.00
2018-04-13T23:50:41.725Z,7.00
2018-04-13T23:53:07.933Z,6.90
2018-04-13T23:55:34.141Z,6.90
2018-04-13T23:58:00.359Z,6.90
